Time;durP1;ratioP1;P1;durP2;ratioP2;P2;SDS_P1;SDS_P2;PMS_P1;PMS_P2;Temp;Humidity;BMP_temperature;BMP_pressure;BME280_temperature;BME280_humidity;BME280_pressure;Samples;Min_cycle;Max_cycle;Signal;HPM_P1;HPM_P2
2024/01/15 00:01:34;;;;;;;6.78;0.80;;;2.20;92.20;;;;;;5101604;28;20408;-78
2024/01/15 00:04:00;;;;;;;7.78;1.00;;;2.10;93.30;;;;;;5091865;28;20431;-78
2024/01/15 00:06:28;;;;;;;10.98;1.33;;;2.10;94.20;;;;;;5100778;28;20412;-78
2024/01/15 00:08:53;;;;;;;10.10;0.75;;;2.00;94.80;;;;;;5103395;28;20430;-77
2024/01/15 00:11:19;;;;;;;12.30;1.03;;;2.00;95.10;;;;;;5100935;28;20436;-78
2024/01/15 00:13:45;;;;;;;8.93;1.10;;;2.00;96.20;;;;;;5103033;28;20401;-78
2024/01/15 00:16:11;;;;;;;9.45;1.30;;;2.10;96.30;;;;;;5074178;28;20441;-77
2024/01/15 00:18:37;;;;;;;10.60;1.30;;;2.00;96.80;;;;;;5102585;28;20400;-78
2024/01/15 00:21:03;;;;;;;7.73;0.77;;;2.00;97.10;;;;;;5101276;28;20525;-78
2024/01/15 00:23:29;;;;;;;7.30;0.90;;;2.10;97.50;;;;;;5100043;28;20411;-78
2024/01/15 00:25:54;;;;;;;10.30;0.80;;;2.10;97.50;;;;;;5099949;28;20396;-78
2024/01/15 00:28:20;;;;;;;8.97;1.00;;;2.00;97.60;;;;;;5100116;28;20853;-77
2024/01/15 00:30:45;;;;;;;8.17;1.27;;;2.10;97.60;;;;;;5099716;28;20449;-77
2024/01/15 00:33:12;;;;;;;7.05;0.75;;;2.10;97.70;;;;;;5099327;28;20431;-78
2024/01/15 00:35:38;;;;;;;7.40;0.85;;;2.10;97.90;;;;;;5097852;28;20439;-77
2024/01/15 00:38:03;;;;;;;9.75;1.02;;;2.20;98.10;;;;;;5095260;28;20440;-77
2024/01/15 00:40:29;;;;;;;13.57;1.25;;;2.20;98.30;;;;;;5086905;28;20413;-77
2024/01/15 00:42:55;;;;;;;11.37;1.10;;;2.20;98.60;;;;;;5093240;28;20400;-77
2024/01/15 00:45:20;;;;;;;13.50;1.57;;;2.20;98.20;;;;;;5101700;28;20450;-77
2024/01/15 00:47:46;;;;;;;13.60;1.60;;;2.20;98.10;;;;;;5103344;28;20878;-77
2024/01/15 00:50:11;;;;;;;11.75;1.20;;;2.30;98.00;;;;;;5101368;28;20910;-77
2024/01/15 00:52:37;;;;;;;12.60;1.57;;;2.20;97.80;;;;;;5103152;28;20830;-77
2024/01/15 00:55:03;;;;;;;11.63;1.38;;;2.10;97.70;;;;;;5101220;28;20953;-77
2024/01/15 00:57:29;;;;;;;10.80;1.42;;;2.10;98.00;;;;;;5102199;28;21065;-77
2024/01/15 00:59:54;;;;;;;9.98;1.30;;;2.10;98.40;;;;;;5100594;28;20441;-77
2024/01/15 01:02:20;;;;;;;12.93;2.00;;;2.20;98.80;;;;;;5102587;28;20397;-77
2024/01/15 01:04:46;;;;;;;15.43;2.43;;;2.30;99.20;;;;;;5099481;28;20461;-77
2024/01/15 01:07:11;;;;;;;12.43;1.50;;;2.40;99.30;;;;;;5102651;28;20436;-77
2024/01/15 01:09:37;;;;;;;14.63;2.27;;;2.50;99.20;;;;;;5102231;28;20441;-77
2024/01/15 01:12:03;;;;;;;15.33;2.50;;;2.50;99.30;;;;;;5102760;28;20424;-77
2024/01/15 01:14:28;;;;;;;15.00;2.78;;;2.60;99.20;;;;;;5100028;28;20770;-77
2024/01/15 01:16:54;;;;;;;15.38;2.20;;;2.60;99.30;;;;;;5102771;28;20532;-77
2024/01/15 01:19:19;;;;;;;14.27;1.93;;;2.70;99.30;;;;;;5093380;28;20402;-77
2024/01/15 01:21:45;;;;;;;10.10;1.55;;;2.80;99.20;;;;;;5104904;28;20491;-77
2024/01/15 01:24:11;;;;;;;7.63;0.98;;;2.80;98.70;;;;;;5103732;28;20407;-77
2024/01/15 01:26:36;;;;;;;11.70;1.57;;;2.90;98.30;;;;;;5105610;28;20423;-77
2024/01/15 01:29:02;;;;;;;11.35;1.42;;;2.90;97.80;;;;;;5104663;28;20461;-77
2024/01/15 01:31:27;;;;;;;11.83;1.67;;;3.00;97.20;;;;;;5101053;28;20396;-77
2024/01/15 01:33:53;;;;;;;14.20;1.50;;;3.00;96.90;;;;;;5085613;28;20400;-77
2024/01/15 01:36:19;;;;;;;16.23;2.00;;;3.00;96.80;;;;;;5093595;28;20436;-77
2024/01/15 01:38:44;;;;;;;13.87;1.77;;;3.00;96.50;;;;;;5094138;28;20394;-77
2024/01/15 01:41:10;;;;;;;10.98;1.35;;;3.00;96.10;;;;;;5103969;28;20481;-77
2024/01/15 01:43:36;;;;;;;12.50;2.00;;;3.00;95.70;;;;;;5106015;28;20777;-77
2024/01/15 01:46:03;;;;;;;11.90;1.63;;;3.00;95.40;;;;;;5103832;28;20400;-77
2024/01/15 01:48:29;;;;;;;11.17;1.20;;;2.90;95.40;;;;;;5105717;28;20405;-77
2024/01/15 01:51:01;;;;;;;11.23;1.58;;;2.90;95.60;;;;;;5105404;28;21228;-77
2024/01/15 01:53:28;;;;;;;14.15;2.38;;;2.90;95.70;;;;;;5103453;28;20986;-77
2024/01/15 01:55:55;;;;;;;14.25;2.30;;;2.90;95.90;;;;;;5106627;28;20446;-77
2024/01/15 01:58:21;;;;;;;17.60;2.50;;;2.90;96.00;;;;;;5103441;28;20426;-77
2024/01/15 02:00:47;;;;;;;13.50;2.13;;;2.80;96.00;;;;;;5104500;28;20451;-77
2024/01/15 02:03:13;;;;;;;15.85;2.50;;;2.80;96.30;;;;;;5103737;28;20434;-77
2024/01/15 02:05:40;;;;;;;18.50;3.13;;;2.80;96.60;;;;;;5106622;28;21255;-77
2024/01/15 02:08:06;;;;;;;22.67;2.60;;;2.80;96.60;;;;;;5103525;28;20756;-77
2024/01/15 02:10:32;;;;;;;17.77;2.38;;;2.80;96.80;;;;;;5087559;28;20408;-77
2024/01/15 02:12:58;;;;;;;18.63;3.08;;;2.90;97.30;;;;;;5102734;28;20530;-77
2024/01/15 02:15:23;;;;;;;16.00;2.42;;;2.90;97.30;;;;;;5105657;28;20812;-77
2024/01/15 02:18:05;;;;;;;19.00;2.42;;;2.90;97.00;;;;;;5103053;28;20402;-77
2024/01/15 02:20:32;;;;;;;15.43;2.67;;;2.90;97.10;;;;;;5090804;28;20906;-77
2024/01/15 02:23:12;;;;;;;18.42;2.55;;;3.00;97.20;;;;;;5100025;28;20437;-77
2024/01/15 02:25:40;;;;;;;19.83;2.88;;;3.00;97.20;;;;;;5105254;28;20404;-77
2024/01/15 02:28:06;;;;;;;20.75;3.33;;;3.00;97.30;;;;;;5102298;28;20404;-77
2024/01/15 02:30:32;;;;;;;18.83;2.60;;;3.10;97.00;;;;;;5103563;28;20408;-77
2024/01/15 02:32:58;;;;;;;19.60;3.10;;;3.00;96.80;;;;;;5102337;28;20485;-77
2024/01/15 02:35:23;;;;;;;18.55;2.55;;;3.00;96.60;;;;;;5103674;28;20412;-77
2024/01/15 02:37:49;;;;;;;16.30;2.60;;;3.00;96.30;;;;;;5097672;28;20402;-77
2024/01/15 02:40:15;;;;;;;20.40;3.25;;;3.00;96.10;;;;;;5071151;28;20412;-77
2024/01/15 02:42:40;;;;;;;15.00;2.10;;;3.00;95.90;;;;;;5103183;28;20514;-77
2024/01/15 02:45:06;;;;;;;17.47;2.50;;;3.10;95.50;;;;;;5094243;28;20406;-76
2024/01/15 02:47:32;;;;;;;15.93;2.40;;;3.10;95.30;;;;;;5102642;28;20507;-77
2024/01/15 02:49:57;;;;;;;17.40;3.43;;;3.20;94.90;;;;;;5104130;28;20434;-77
2024/01/15 02:52:23;;;;;;;19.17;2.77;;;3.20;93.90;;;;;;5100979;28;20789;-76
2024/01/15 02:54:48;;;;;;;16.15;2.70;;;3.20;93.40;;;;;;5105510;28;20487;-76
2024/01/15 02:57:14;;;;;;;20.20;3.17;;;3.20;93.10;;;;;;5101215;28;20523;-76
2024/01/15 02:59:39;;;;;;;18.63;3.30;;;3.20;92.70;;;;;;5103164;28;20962;-77
2024/01/15 03:02:05;;;;;;;18.67;3.05;;;3.20;92.70;;;;;;5101373;28;20433;-76
2024/01/15 03:04:31;;;;;;;22.30;3.60;;;3.20;92.60;;;;;;5087268;28;20411;-77
2024/01/15 03:06:56;;;;;;;21.00;2.67;;;3.20;92.60;;;;;;5085863;28;20421;-76
2024/01/15 03:09:22;;;;;;;20.70;2.27;;;3.20;92.70;;;;;;5088747;28;20399;-77
2024/01/15 03:11:48;;;;;;;17.03;2.67;;;3.20;92.70;;;;;;5090261;28;20426;-77
2024/01/15 03:14:14;;;;;;;15.38;2.38;;;3.30;93.20;;;;;;5103732;28;20419;-77
2024/01/15 03:16:39;;;;;;;9.50;1.23;;;3.30;92.90;;;;;;5092513;28;20396;-77
2024/01/15 03:19:05;;;;;;;10.30;1.10;;;3.30;92.00;;;;;;5095855;28;20403;-77
2024/01/15 03:21:30;;;;;;;13.97;1.50;;;3.20;91.70;;;;;;5102720;28;20412;-77
2024/01/15 03:23:56;;;;;;;16.53;2.57;;;3.20;91.30;;;;;;5098300;28;20410;-77
2024/01/15 03:26:22;;;;;;;16.42;2.72;;;3.20;91.30;;;;;;5100063;28;20438;-77
2024/01/15 03:28:47;;;;;;;16.07;2.33;;;3.20;91.60;;;;;;5106168;28;20404;-77
2024/01/15 03:31:13;;;;;;;16.90;2.50;;;3.20;91.90;;;;;;5105262;28;20865;-77
2024/01/15 03:33:38;;;;;;;20.15;2.78;;;3.20;92.10;;;;;;5102956;28;20478;-77
2024/01/15 03:36:04;;;;;;;15.70;1.80;;;3.20;91.70;;;;;;5085420;28;20861;-77
2024/01/15 03:38:30;;;;;;;10.45;1.40;;;3.20;91.30;;;;;;5085566;28;20435;-77
2024/01/15 03:40:55;;;;;;;8.88;2.05;;;3.10;89.00;;;;;;5092181;28;20406;-77
2024/01/15 03:43:21;;;;;;;10.10;1.47;;;3.10;85.90;;;;;;5099484;28;20444;-77
2024/01/15 03:45:47;;;;;;;9.70;1.37;;;3.10;85.60;;;;;;5104408;28;20845;-77
2024/01/15 03:48:12;;;;;;;9.52;1.27;;;3.00;84.80;;;;;;5104462;28;20434;-77
2024/01/15 03:50:38;;;;;;;12.33;1.60;;;3.00;85.50;;;;;;5086791;28;20412;-77
2024/01/15 03:53:03;;;;;;;11.33;1.83;;;3.00;84.90;;;;;;5105672;28;20435;-77
2024/01/15 03:55:29;;;;;;;13.52;1.88;;;3.10;85.50;;;;;;5105317;28;20526;-77
2024/01/15 03:57:55;;;;;;;12.27;1.77;;;3.10;85.70;;;;;;5105704;28;20404;-77
2024/01/15 04:00:20;;;;;;;12.93;1.90;;;3.10;87.00;;;;;;5085970;28;20412;-77
2024/01/15 04:02:46;;;;;;;15.63;2.28;;;3.10;88.10;;;;;;5085811;28;20407;-77
2024/01/15 04:05:12;;;;;;;8.30;1.40;;;3.10;89.30;;;;;;5103031;28;20392;-77
2024/01/15 04:07:37;;;;;;;5.90;0.60;;;3.10;89.00;;;;;;5103204;28;20404;-76
2024/01/15 04:10:03;;;;;;;5.70;0.80;;;3.10;87.00;;;;;;5101571;28;20404;-77
2024/01/15 04:12:29;;;;;;;4.75;0.50;;;3.00;85.90;;;;;;5105178;28;20428;-76
2024/01/15 04:14:54;;;;;;;6.20;0.70;;;2.90;84.60;;;;;;5098988;28;20402;-77
2024/01/15 04:17:21;;;;;;;9.80;1.17;;;2.80;84.40;;;;;;5098802;28;20388;-76
2024/01/15 04:19:48;;;;;;;8.68;0.93;;;2.70;86.80;;;;;;5103418;28;20404;-76
2024/01/15 04:22:13;;;;;;;10.77;1.10;;;2.70;87.30;;;;;;5105426;28;20404;-76
2024/01/15 04:24:39;;;;;;;10.37;1.40;;;2.70;87.30;;;;;;5105209;28;20881;-76
2024/01/15 04:27:05;;;;;;;15.18;2.03;;;2.70;88.50;;;;;;5094565;28;20406;-76
2024/01/15 04:29:31;;;;;;;10.07;1.02;;;2.80;90.00;;;;;;5104614;28;20392;-76
2024/01/15 04:31:56;;;;;;;7.13;1.25;;;2.90;90.60;;;;;;5106005;28;20836;-76
2024/01/15 04:34:22;;;;;;;8.13;1.08;;;2.90;91.00;;;;;;5103278;28;20475;-77
2024/01/15 04:36:47;;;;;;;5.97;0.80;;;2.90;90.30;;;;;;5104012;28;20774;-76
2024/01/15 04:39:13;;;;;;;7.13;0.70;;;2.90;89.40;;;;;;5102863;28;20509;-76
2024/01/15 04:41:39;;;;;;;5.27;0.60;;;2.80;89.00;;;;;;5105872;28;20611;-77
2024/01/15 04:44:04;;;;;;;4.97;0.57;;;2.80;89.10;;;;;;5098855;28;20393;-76
2024/01/15 04:46:30;;;;;;;9.80;0.97;;;2.70;89.30;;;;;;5096565;28;20412;-76
2024/01/15 04:48:56;;;;;;;8.57;1.05;;;2.70;90.30;;;;;;5100390;28;20417;-76
2024/01/15 04:51:21;;;;;;;8.83;0.90;;;2.70;91.00;;;;;;5092674;28;20406;-76
2024/01/15 04:53:47;;;;;;;9.60;1.03;;;2.60;91.10;;;;;;5087137;28;20515;-77
2024/01/15 04:56:13;;;;;;;10.75;1.13;;;2.60;91.70;;;;;;5109423;28;20400;-76
2024/01/15 04:58:38;;;;;;;11.67;1.10;;;2.50;92.00;;;;;;5106856;28;20396;-76
2024/01/15 05:01:04;;;;;;;9.53;1.20;;;2.40;92.50;;;;;;5098661;28;20455;-77
2024/01/15 05:03:29;;;;;;;7.88;1.20;;;2.40;93.00;;;;;;5105654;28;20392;-77
2024/01/15 05:05:55;;;;;;;10.90;1.40;;;2.30;93.00;;;;;;5109520;28;20443;-76
2024/01/15 05:08:21;;;;;;;12.80;1.23;;;2.30;93.50;;;;;;5086311;28;20415;-77
2024/01/15 05:10:47;;;;;;;10.07;1.25;;;2.30;93.90;;;;;;5097052;28;20405;-77
2024/01/15 05:13:13;;;;;;;8.33;1.13;;;2.20;94.10;;;;;;5104312;28;20985;-77
2024/01/15 05:15:39;;;;;;;8.97;0.90;;;2.30;93.60;;;;;;5102428;28;20418;-76
2024/01/15 05:18:04;;;;;;;12.15;1.38;;;2.30;93.60;;;;;;5104402;28;20423;-76
2024/01/15 05:20:30;;;;;;;11.73;1.23;;;2.30;93.30;;;;;;5097303;28;20462;-77
2024/01/15 05:22:56;;;;;;;8.00;1.45;;;2.30;93.10;;;;;;5106889;28;20484;-77
2024/01/15 05:25:22;;;;;;;13.60;1.67;;;2.30;93.30;;;;;;5109633;28;20503;-77
2024/01/15 05:27:48;;;;;;;11.70;1.67;;;2.20;93.40;;;;;;5108193;28;20420;-77
2024/01/15 05:30:14;;;;;;;10.90;1.40;;;2.20;93.40;;;;;;5107978;28;20408;-77
2024/01/15 05:32:40;;;;;;;8.80;1.00;;;2.20;93.00;;;;;;5095067;28;20802;-77
2024/01/15 05:35:05;;;;;;;8.97;0.97;;;2.20;92.50;;;;;;5108673;28;20413;-77
2024/01/15 05:37:31;;;;;;;8.60;0.88;;;2.10;92.20;;;;;;5106980;28;20393;-77
2024/01/15 05:39:57;;;;;;;7.55;0.80;;;2.10;92.00;;;;;;5107450;28;20412;-77
2024/01/15 05:42:22;;;;;;;8.90;1.45;;;2.10;91.60;;;;;;5105520;28;20401;-76
2024/01/15 05:44:48;;;;;;;11.13;1.47;;;2.10;91.90;;;;;;5108498;28;20849;-77
2024/01/15 05:47:14;;;;;;;9.88;1.00;;;2.20;91.70;;;;;;5105964;28;20438;-77
2024/01/15 05:49:39;;;;;;;12.43;1.30;;;2.20;91.50;;;;;;5108103;28;20483;-78
2024/01/15 05:52:05;;;;;;;11.43;1.50;;;2.20;91.60;;;;;;5103223;28;20785;-77
2024/01/15 05:54:30;;;;;;;10.33;1.50;;;2.20;91.90;;;;;;5108498;28;20405;-77
2024/01/15 05:56:56;;;;;;;16.17;2.17;;;2.20;92.10;;;;;;5105044;28;20415;-77
2024/01/15 05:59:22;;;;;;;13.98;2.17;;;2.20;92.00;;;;;;5108353;28;20901;-77
2024/01/15 06:01:48;;;;;;;15.70;2.07;;;2.20;92.20;;;;;;5104079;28;20412;-77
2024/01/15 06:04:15;;;;;;;16.60;2.30;;;2.10;92.40;;;;;;5105084;28;21484;-78
2024/01/15 06:06:41;;;;;;;14.93;1.80;;;2.10;92.50;;;;;;5087768;28;20444;-77
2024/01/15 06:09:06;;;;;;;10.23;1.60;;;2.10;93.00;;;;;;5106948;28;20503;-77
2024/01/15 06:11:32;;;;;;;12.63;1.92;;;2.10;93.30;;;;;;5104974;28;20411;-78
2024/01/15 06:13:58;;;;;;;16.38;2.13;;;2.10;93.30;;;;;;5088921;28;20404;-77
2024/01/15 06:16:24;;;;;;;13.82;1.85;;;2.20;93.00;;;;;;5092213;28;20404;-77
2024/01/15 06:18:50;;;;;;;11.55;1.40;;;2.20;92.40;;;;;;5108696;28;20396;-77
2024/01/15 06:21:16;;;;;;;10.23;1.38;;;2.30;92.10;;;;;;5104632;28;20942;-77
2024/01/15 06:23:42;;;;;;;10.13;1.45;;;2.30;91.00;;;;;;5080061;28;20433;-77
2024/01/15 06:26:07;;;;;;;7.50;0.90;;;2.40;88.30;;;;;;5103115;28;20898;-77
2024/01/15 06:28:33;;;;;;;9.87;1.70;;;2.40;87.90;;;;;;5106356;28;20404;-78
2024/01/15 06:30:59;;;;;;;8.50;1.08;;;2.30;85.90;;;;;;5102608;28;20405;-78
2024/01/15 06:33:24;;;;;;;7.82;1.00;;;2.30;85.00;;;;;;5100594;28;20503;-77
2024/01/15 06:35:50;;;;;;;11.13;1.33;;;2.30;84.00;;;;;;5075966;28;20428;-78
2024/01/15 06:38:16;;;;;;;6.90;1.30;;;2.30;84.60;;;;;;5073337;28;20424;-78
2024/01/15 06:40:45;;;;;;;3.93;0.57;;;2.30;86.30;;;;;;5099543;28;20406;-78
2024/01/15 06:43:12;;;;;;;3.35;0.35;;;2.30;87.60;;;;;;5087865;28;20476;-78
2024/01/15 06:45:38;;;;;;;3.80;0.40;;;2.20;88.00;;;;;;5101584;28;20405;-77
2024/01/15 06:48:04;;;;;;;5.27;0.60;;;2.10;89.30;;;;;;5104483;28;20766;-78
2024/01/15 06:50:29;;;;;;;7.38;0.90;;;2.00;90.20;;;;;;5100673;28;20399;-77
2024/01/15 06:52:55;;;;;;;8.05;0.80;;;2.00;90.60;;;;;;5105500;28;20424;-77
2024/01/15 06:55:20;;;;;;;8.97;0.93;;;1.90;91.60;;;;;;5101355;28;20885;-78
2024/01/15 06:57:46;;;;;;;8.50;1.17;;;1.90;92.00;;;;;;5105138;28;20397;-78
2024/01/15 07:00:12;;;;;;;9.82;1.20;;;1.80;92.30;;;;;;5100446;27;20410;-77
2024/01/15 07:02:38;;;;;;;9.25;1.10;;;1.70;92.70;;;;;;5103815;28;20416;-77
2024/01/15 07:05:05;;;;;;;10.10;1.40;;;1.70;93.00;;;;;;5089221;28;20405;-77
2024/01/15 07:07:31;;;;;;;10.90;2.87;;;1.70;93.60;;;;;;5104502;28;20839;-77
2024/01/15 07:09:57;;;;;;;10.50;1.15;;;1.70;93.70;;;;;;5090202;28;20409;-77
2024/01/15 07:12:23;;;;;;;13.23;1.70;;;1.70;94.20;;;;;;5095607;28;20426;-77
2024/01/15 07:14:49;;;;;;;13.23;1.75;;;1.70;94.50;;;;;;5097716;28;20428;-77
2024/01/15 07:17:15;;;;;;;14.73;2.05;;;1.70;94.70;;;;;;5098768;28;20499;-77
2024/01/15 07:19:41;;;;;;;13.43;2.03;;;1.70;95.10;;;;;;5086852;28;20503;-78
2024/01/15 07:22:06;;;;;;;15.43;1.98;;;1.70;95.50;;;;;;5106096;28;20417;-77
2024/01/15 07:24:34;;;;;;;13.80;1.88;;;1.80;95.90;;;;;;5101944;28;20811;-77
2024/01/15 07:27:00;;;;;;;17.38;2.72;;;1.80;95.80;;;;;;5097261;28;20423;-77
2024/01/15 07:29:25;;;;;;;16.27;2.45;;;1.80;96.00;;;;;;5105763;28;20396;-77
2024/01/15 07:31:52;;;;;;;18.02;2.65;;;1.80;96.00;;;;;;5107294;28;20495;-77
2024/01/15 07:34:17;;;;;;;17.85;2.13;;;1.80;95.70;;;;;;5087399;28;20413;-77
2024/01/15 07:36:46;;;;;;;16.83;2.80;;;1.80;95.70;;;;;;5105769;28;20413;-77
2024/01/15 07:39:12;;;;;;;17.23;2.70;;;1.80;95.80;;;;;;5093613;28;20426;-77
2024/01/15 07:41:38;;;;;;;18.55;2.75;;;1.80;95.90;;;;;;5107052;28;20992;-77
2024/01/15 07:44:04;;;;;;;14.30;1.90;;;1.80;96.10;;;;;;5103764;28;20400;-77
2024/01/15 07:46:30;;;;;;;16.60;2.67;;;1.70;96.50;;;;;;5105640;28;20415;-77
2024/01/15 07:48:57;;;;;;;13.25;2.10;;;1.70;96.40;;;;;;5104664;28;20400;-77
2024/01/15 07:51:23;;;;;;;13.93;2.58;;;1.70;96.50;;;;;;5095725;28;20406;-78
2024/01/15 07:53:49;;;;;;;14.18;2.00;;;1.70;96.40;;;;;;5102951;28;20423;-77
2024/01/15 07:56:15;;;;;;;13.02;2.05;;;1.70;96.30;;;;;;5105988;28;20977;-77
2024/01/15 07:58:41;;;;;;;13.35;1.88;;;1.70;96.60;;;;;;5103398;28;20465;-77
2024/01/15 08:01:07;;;;;;;13.93;1.77;;;1.70;96.50;;;;;;5106273;28;20408;-78
2024/01/15 08:03:33;;;;;;;8.63;0.95;;;1.70;96.50;;;;;;5103085;28;20416;-77
2024/01/15 08:05:59;;;;;;;12.57;1.60;;;1.80;96.20;;;;;;5104525;28;20400;-77
2024/01/15 08:08:28;;;;;;;12.50;1.40;;;1.80;96.00;;;;;;5103097;28;20435;-77
2024/01/15 08:10:53;;;;;;;9.60;1.33;;;1.80;95.60;;;;;;5106247;28;20407;-77
2024/01/15 08:13:20;;;;;;;11.05;1.65;;;1.80;95.30;;;;;;5098897;28;20425;-77
2024/01/15 08:15:46;;;;;;;10.70;1.48;;;1.90;95.10;;;;;;5086574;28;20409;-77
2024/01/15 08:18:11;;;;;;;10.27;1.45;;;1.90;94.30;;;;;;5102735;28;20866;-77
2024/01/15 08:20:37;;;;;;;8.10;0.90;;;1.90;93.90;;;;;;5105409;28;20480;-77
2024/01/15 08:23:04;;;;;;;11.15;1.92;;;1.90;93.60;;;;;;5085398;28;20443;-77
2024/01/15 08:25:29;;;;;;;7.55;1.48;;;1.90;93.40;;;;;;5106808;28;20541;-78
2024/01/15 08:27:57;;;;;;;9.07;1.42;;;1.90;93.50;;;;;;5098712;28;21340;-78
2024/01/15 08:30:27;;;;;;;10.45;1.48;;;2.00;93.40;;;;;;5108490;28;20420;-77
2024/01/15 08:32:55;;;;;;;9.43;1.33;;;2.00;93.50;;;;;;5094661;28;20486;-77
2024/01/15 08:35:22;;;;;;;9.48;1.20;;;2.10;93.50;;;;;;5104836;28;20438;-77
2024/01/15 08:37:52;;;;;;;11.32;1.40;;;2.10;93.20;;;;;;5104072;28;20513;-78
2024/01/15 08:40:18;;;;;;;9.38;1.17;;;2.20;92.80;;;;;;5104688;28;20410;-77
2024/01/15 08:42:45;;;;;;;7.43;1.02;;;2.20;92.60;;;;;;5105633;28;20396;-77
2024/01/15 08:45:11;;;;;;;8.32;1.13;;;2.20;92.40;;;;;;5102771;28;20740;-77
2024/01/15 08:47:37;;;;;;;8.27;1.15;;;2.20;92.00;;;;;;5106253;28;20404;-77
2024/01/15 08:50:03;;;;;;;12.23;1.10;;;2.20;91.80;;;;;;5104053;28;20396;-77
2024/01/15 08:52:29;;;;;;;9.73;1.25;;;2.20;91.60;;;;;;5105002;28;20432;-77
2024/01/15 08:54:56;;;;;;;11.37;1.40;;;2.20;91.70;;;;;;5086030;28;20403;-77
2024/01/15 08:57:22;;;;;;;9.23;1.30;;;2.10;91.90;;;;;;5087794;28;20416;-77
2024/01/15 08:59:48;;;;;;;10.97;1.23;;;2.10;92.10;;;;;;5074062;28;20753;-77
2024/01/15 09:02:13;;;;;;;9.93;1.27;;;2.10;92.30;;;;;;5105598;28;20397;-77
2024/01/15 09:04:39;;;;;;;9.23;1.25;;;2.10;92.60;;;;;;5103313;28;20404;-77
2024/01/15 09:07:04;;;;;;;10.17;1.93;;;2.00;92.80;;;;;;5105583;28;20397;-77
2024/01/15 09:09:30;;;;;;;10.48;1.60;;;2.00;93.30;;;;;;5103504;28;20408;-77
2024/01/15 09:11:56;;;;;;;9.90;1.08;;;1.90;93.60;;;;;;5105965;28;20420;-77
2024/01/15 09:14:24;;;;;;;8.90;1.13;;;1.90;93.90;;;;;;5092091;28;20465;-77
2024/01/15 09:16:49;;;;;;;8.48;1.42;;;1.90;94.30;;;;;;5094144;28;20404;-77
2024/01/15 09:19:15;;;;;;;8.27;1.30;;;1.90;94.80;;;;;;5103912;28;20457;-77
2024/01/15 09:21:41;;;;;;;8.77;1.30;;;1.90;94.90;;;;;;5105796;28;20832;-77
2024/01/15 09:24:06;;;;;;;9.27;1.50;;;1.90;94.90;;;;;;5103170;28;20440;-77
2024/01/15 09:26:32;;;;;;;8.20;0.90;;;1.90;95.00;;;;;;5105424;28;20493;-77
2024/01/15 09:28:58;;;;;;;12.95;1.67;;;1.90;94.90;;;;;;5103019;28;20432;-77
2024/01/15 09:31:23;;;;;;;12.15;1.63;;;1.80;95.00;;;;;;5104372;28;20411;-77
2024/01/15 09:33:52;;;;;;;11.53;1.60;;;1.80;95.30;;;;;;5102822;28;20420;-76
2024/01/15 09:36:17;;;;;;;10.68;1.40;;;1.80;95.50;;;;;;5094149;28;20408;-77
2024/01/15 09:38:43;;;;;;;7.22;1.00;;;1.80;95.90;;;;;;5084747;28;20442;-77
2024/01/15 09:41:09;;;;;;;7.20;0.55;;;1.80;95.80;;;;;;5085866;28;20404;-77
2024/01/15 09:43:37;;;;;;;5.45;0.40;;;1.80;95.60;;;;;;5106423;28;20401;-77
2024/01/15 09:46:03;;;;;;;6.67;0.70;;;1.80;95.60;;;;;;5105336;28;20412;-77
2024/01/15 09:48:29;;;;;;;5.22;0.43;;;1.80;95.70;;;;;;5105553;28;20400;-77
2024/01/15 09:50:58;;;;;;;7.75;1.00;;;1.90;95.80;;;;;;5106985;28;20393;-77
2024/01/15 09:53:25;;;;;;;6.70;0.80;;;2.00;95.90;;;;;;5103016;28;20926;-77
2024/01/15 09:55:53;;;;;;;7.03;0.90;;;2.00;95.50;;;;;;5107046;28;20400;-76
2024/01/15 09:58:19;;;;;;;8.43;0.95;;;2.10;95.20;;;;;;5102314;28;20421;-77
2024/01/15 10:00:47;;;;;;;7.85;1.45;;;2.00;94.90;;;;;;5105522;28;20416;-77
2024/01/15 10:03:13;;;;;;;11.27;1.75;;;2.00;94.70;;;;;;5102885;28;20398;-77
2024/01/15 10:05:39;;;;;;;12.27;1.85;;;1.90;94.80;;;;;;5105675;28;20492;-77
2024/01/15 10:08:05;;;;;;;12.63;1.52;;;1.80;94.80;;;;;;5102036;28;20402;-77
2024/01/15 10:10:31;;;;;;;8.83;1.23;;;1.80;95.10;;;;;;5105465;28;20940;-77
2024/01/15 10:12:59;;;;;;;11.35;1.35;;;1.70;95.60;;;;;;5083769;28;20483;-77
2024/01/15 10:15:28;;;;;;;11.68;1.50;;;1.70;96.30;;;;;;5080705;28;20411;-77
2024/01/15 10:17:55;;;;;;;11.90;1.58;;;1.70;96.60;;;;;;5099965;28;20406;-77
2024/01/15 10:20:22;;;;;;;11.95;1.50;;;1.70;96.80;;;;;;5096953;28;20430;-77
2024/01/15 10:22:48;;;;;;;9.48;1.63;;;1.70;97.10;;;;;;5104287;28;20900;-77
2024/01/15 10:25:14;;;;;;;9.97;1.70;;;1.70;97.50;;;;;;5107324;28;20403;-77
2024/01/15 10:27:43;;;;;;;14.70;1.73;;;1.80;98.20;;;;;;5104743;28;20771;-77
2024/01/15 10:30:09;;;;;;;13.32;1.90;;;1.80;98.50;;;;;;5107250;28;21120;-77
2024/01/15 10:32:35;;;;;;;13.38;1.77;;;1.90;98.70;;;;;;5102392;28;20508;-77
2024/01/15 10:35:01;;;;;;;12.67;1.67;;;1.90;98.50;;;;;;5106998;28;20483;-77
2024/01/15 10:37:27;;;;;;;12.90;2.00;;;1.90;98.10;;;;;;5101625;28;20405;-77
2024/01/15 10:39:53;;;;;;;13.18;2.30;;;1.90;97.80;;;;;;5098193;28;20977;-77
2024/01/15 10:42:18;;;;;;;10.73;1.65;;;1.80;97.60;;;;;;5102912;28;20395;-77
2024/01/15 10:44:47;;;;;;;8.15;1.20;;;1.80;97.30;;;;;;5106525;28;20444;-77
2024/01/15 10:47:13;;;;;;;8.63;1.38;;;1.80;97.70;;;;;;5103188;28;20406;-77
2024/01/15 10:49:39;;;;;;;8.38;1.23;;;1.80;97.90;;;;;;5106805;28;20431;-77
2024/01/15 10:52:05;;;;;;;10.85;1.50;;;1.80;98.20;;;;;;5102733;28;20460;-77
2024/01/15 10:54:32;;;;;;;12.07;1.90;;;1.80;98.50;;;;;;5106825;28;20885;-77
2024/01/15 10:56:58;;;;;;;13.88;1.70;;;1.90;98.80;;;;;;5101378;28;20485;-77
2024/01/15 10:59:24;;;;;;;12.10;1.52;;;1.90;99.00;;;;;;5105989;28;20499;-77
2024/01/15 11:01:53;;;;;;;9.45;1.05;;;2.00;99.10;;;;;;5091656;28;20869;-77
2024/01/15 11:04:20;;;;;;;8.13;0.90;;;2.00;98.70;;;;;;5106447;28;20410;-78
2024/01/15 11:06:49;;;;;;;7.35;0.57;;;2.10;98.90;;;;;;5103173;28;20487;-78
2024/01/15 11:09:15;;;;;;;6.53;0.60;;;2.10;99.00;;;;;;5104947;28;20537;-78
2024/01/15 11:11:44;;;;;;;5.18;0.73;;;2.20;99.10;;;;;;5101578;28;20491;-77
2024/01/15 11:14:10;;;;;;;3.90;0.50;;;2.30;98.80;;;;;;5094536;28;21649;-77
2024/01/15 11:17:01;;;;;;;5.82;0.88;;;2.30;98.90;;;;;;5074999;28;20562;-77
2024/01/15 11:19:41;;;;;;;4.43;0.50;;;2.40;99.20;;;;;;5075204;28;20418;-77
2024/01/15 11:22:09;;;;;;;2.95;0.30;;;2.40;99.10;;;;;;5105905;28;20408;-77
2024/01/15 11:24:38;;;;;;;5.32;0.50;;;2.50;98.90;;;;;;5101067;28;20467;-77
2024/01/15 11:27:05;;;;;;;4.50;0.40;;;2.50;98.50;;;;;;5098731;28;20491;-77
2024/01/15 11:29:34;;;;;;;3.75;0.57;;;2.40;98.00;;;;;;5104221;28;21108;-76
2024/01/15 11:32:07;;;;;;;4.53;0.70;;;2.40;97.60;;;;;;5105863;28;20428;-77
2024/01/15 11:34:52;;;;;;;5.07;0.50;;;2.30;97.70;;;;;;5105338;28;20546;-77
2024/01/15 11:37:19;;;;;;;10.30;1.02;;;2.30;97.90;;;;;;5102288;28;20746;-77
2024/01/15 11:39:48;;;;;;;7.35;0.50;;;2.30;98.20;;;;;;5105154;28;20887;-77
2024/01/15 11:42:15;;;;;;;4.28;0.40;;;2.30;98.30;;;;;;5103690;28;20744;-77
2024/01/15 11:44:41;;;;;;;6.43;0.50;;;2.30;98.60;;;;;;5095513;28;20409;-76
2024/01/15 11:47:14;;;;;;;5.18;0.70;;;2.40;99.00;;;;;;5101013;28;20386;-77
2024/01/15 11:50:02;;;;;;;4.63;0.57;;;2.40;99.30;;;;;;5105766;28;21266;-76
2024/01/15 11:52:36;;;;;;;4.83;0.40;;;2.50;99.10;;;;;;5104363;28;20428;-77
2024/01/15 11:55:12;;;;;;;6.80;0.57;;;2.50;99.10;;;;;;5101847;28;20773;-77
2024/01/15 11:57:46;;;;;;;6.47;0.60;;;2.60;99.20;;;;;;5103956;28;20474;-77
2024/01/15 12:00:13;;;;;;;3.75;0.73;;;2.70;99.60;;;;;;5098448;28;20516;-77
2024/01/15 12:02:41;;;;;;;4.30;0.70;;;2.80;99.80;;;;;;5095600;28;20941;-77
2024/01/15 12:05:08;;;;;;;5.00;0.55;;;2.90;99.80;;;;;;5101915;28;20426;-77
2024/01/15 12:07:34;;;;;;;4.43;0.55;;;3.00;99.80;;;;;;5106057;28;20416;-77
2024/01/15 12:10:00;;;;;;;1.90;0.20;;;3.20;99.60;;;;;;5086432;28;20875;-77
2024/01/15 12:12:48;;;;;;;2.07;0.20;;;3.20;97.30;;;;;;5096339;28;20922;-77
2024/01/15 12:15:15;;;;;;;2.87;0.20;;;3.20;96.00;;;;;;5095830;28;20761;-77
2024/01/15 12:17:40;;;;;;;3.33;0.20;;;3.20;96.30;;;;;;5097335;28;20420;-77
2024/01/15 12:20:06;;;;;;;4.10;0.30;;;3.20;95.80;;;;;;5076378;28;20413;-77
2024/01/15 12:22:32;;;;;;;6.20;0.40;;;3.10;95.20;;;;;;5098162;28;20455;-77
2024/01/15 12:24:57;;;;;;;2.90;0.37;;;3.00;95.50;;;;;;5106143;28;20412;-77
2024/01/15 12:27:24;;;;;;;6.35;0.70;;;3.00;95.90;;;;;;5102667;28;20915;-77
2024/01/15 12:29:49;;;;;;;3.10;0.43;;;3.00;96.20;;;;;;5082795;28;20407;-77
2024/01/15 12:32:15;;;;;;;7.95;0.85;;;3.00;96.70;;;;;;5084694;28;20432;-77
2024/01/15 12:34:40;;;;;;;3.93;0.50;;;3.00;97.60;;;;;;5094028;28;20411;-76
2024/01/15 12:37:07;;;;;;;8.05;2.13;;;3.30;98.80;;;;;;5085141;28;20494;-77
2024/01/15 12:39:35;;;;;;;7.05;1.40;;;3.50;98.90;;;;;;5087104;28;20410;-77
2024/01/15 12:42:01;;;;;;;4.67;1.00;;;3.70;98.60;;;;;;5097950;28;20507;-77
2024/01/15 12:44:28;;;;;;;4.57;0.60;;;4.10;98.90;;;;;;5103651;28;20890;-77
2024/01/15 12:46:54;;;;;;;4.22;0.55;;;4.30;96.90;;;;;;5101153;28;20408;-77